Terminal Aerodrome Forecast
Issued by NWS

Home | Current Version | Previous Version | Text Only | Print | Product List | Glossary On
Versions: 1 2 3 4 5 6 7 8 9 10 11 12 13 14 15 16
840
FTUS44 KLUB 191123
TAFCDS
TAF
KCDS 191123Z 1912/2012 10006KT 1/2SM FG OVC002
     FM191500 11007KT 5SM BR OVC008
     FM191700 16011KT P6SM BKN025
     FM192300 16011KT P6SM BKN090=

USA.gov is the U.S. government's official web portal to all federal, state and local government web resources and services.